Time;durP1;ratioP1;P1;durP2;ratioP2;P2;SDS_P1;SDS_P2;PMS_P1;PMS_P2;Temp;Humidity;BMP_temperature;BMP_pressure;BME280_temperature;BME280_humidity;BME280_pressure;Samples;Min_cycle;Max_cycle;Signal;HPM_P1;HPM_P2
2024/04/13 00:02:13;;;;;;;0.05;0.05;;;;;;;15.82;51.48;100914.59;4474750;31;34503;-84
2024/04/13 00:04:40;;;;;;;0.30;0.30;;;;;;;16.10;50.98;100913.28;4450969;31;34657;-84
2024/04/13 00:07:06;;;;;;;0.30;0.30;;;;;;;16.38;50.56;100912.78;4476385;31;32197;-83
2024/04/13 00:09:33;;;;;;;0.30;0.30;;;;;;;16.14;51.17;100909.50;4485731;31;34246;-84
2024/04/13 00:12:00;;;;;;;0.00;0.00;;;;;;;15.97;51.65;100905.00;4473471;31;33583;-83
2024/04/13 00:14:26;;;;;;;0.40;0.40;;;;;;;16.12;51.38;100904.25;4475881;31;33705;-84
2024/04/13 00:16:53;;;;;;;0.20;0.20;;;;;;;16.19;51.39;100909.28;4475932;31;31831;-83
2024/04/13 00:19:20;;;;;;;0.47;0.45;;;;;;;16.07;51.54;100905.41;4466168;31;32662;-83
2024/04/13 00:21:46;;;;;;;0.00;0.00;;;;;;;16.07;51.79;100905.41;4474404;31;35716;-84
2024/04/13 00:24:13;;;;;;;0.13;0.13;;;;;;;16.19;51.47;100901.28;4465526;31;32289;-83
2024/04/13 00:26:40;;;;;;;0.15;0.15;;;;;;;16.51;50.69;100895.19;4463252;31;33980;-83
2024/04/13 00:29:06;;;;;;;0.32;0.32;;;;;;;16.44;50.65;100893.81;4475586;31;34075;-82
2024/04/13 00:31:33;;;;;;;0.25;0.20;;;;;;;16.49;50.56;100889.09;4473555;31;34094;-82
2024/04/13 00:34:04;;;;;;;0.28;0.28;;;;;;;16.62;50.25;100889.34;4491841;31;33798;-83
2024/04/13 00:36:35;;;;;;;0.10;0.10;;;;;;;16.63;50.34;100894.59;4477251;31;34148;-82
2024/04/13 00:39:05;;;;;;;2.07;0.77;;;;;;;16.56;50.61;100887.81;4480242;31;34738;-82
2024/04/13 00:41:32;;;;;;;0.22;0.20;;;;;;;16.63;50.41;100886.59;4481333;31;34024;-82
2024/04/13 00:44:00;;;;;;;0.30;0.30;;;;;;;16.65;50.41;100887.34;4477301;31;34464;-82
2024/04/13 00:46:31;;;;;;;0.30;0.20;;;;;;;16.67;50.40;100883.78;4490804;31;33271;-82
2024/04/13 00:49:10;;;;;;;0.20;0.20;;;;;;;16.65;50.41;100882.03;4476951;31;32362;-82
2024/04/13 00:51:38;;;;;;;0.65;0.65;;;;;;;16.67;50.33;100881.09;4465121;31;33707;-84
2024/04/13 00:54:07;;;;;;;0.40;0.37;;;;;;;16.88;49.65;100877.34;4479020;31;33103;-84
2024/04/13 00:56:34;;;;;;;0.20;0.20;;;;;;;16.94;49.34;100879.66;4464195;31;33678;-84
2024/04/13 00:59:01;;;;;;;0.45;0.45;;;;;;;16.71;50.10;100879.97;4452158;31;33846;-85
2024/04/13 01:01:28;;;;;;;0.20;0.20;;;;;;;16.71;50.04;100885.31;4470117;31;32556;-83
2024/04/13 01:03:54;;;;;;;0.20;0.20;;;;;;;16.74;49.83;100883.38;4477748;31;34627;-84
2024/04/13 01:06:22;;;;;;;0.10;0.10;;;;;;;16.55;50.53;100879.91;4465091;31;32635;-84
2024/04/13 01:08:50;;;;;;;0.10;0.10;;;;;;;16.59;50.48;100877.00;4491549;31;34178;-83
2024/04/13 01:11:17;;;;;;;0.00;0.00;;;;;;;16.59;50.29;100870.81;4479495;31;32758;-83
2024/04/13 01:13:43;;;;;;;0.10;0.10;;;;;;;16.60;50.45;100876.06;4479361;31;33416;-82
2024/04/13 01:16:10;;;;;;;0.10;0.10;;;;;;;16.70;50.19;100873.78;4479097;31;32862;-82
2024/04/13 01:18:37;;;;;;;0.37;0.37;;;;;;;16.69;50.33;100868.53;4478057;31;34591;-82
2024/04/13 01:21:05;;;;;;;0.20;0.20;;;;;;;16.49;50.83;100865.09;4462834;31;33216;-82
2024/04/13 01:23:35;;;;;;;0.00;0.00;;;;;;;16.46;50.95;100865.25;4472952;31;32224;-82
2024/04/13 01:26:03;;;;;;;7.12;1.33;;;;;;;16.45;51.03;100868.00;4477585;31;33198;-82
2024/04/13 01:28:32;;;;;;;0.10;0.10;;;;;;;16.43;51.15;100873.41;4489442;31;34205;-82
2024/04/13 01:31:00;;;;;;;0.28;0.28;;;;;;;16.53;50.97;100877.34;4477698;31;34276;-82
2024/04/13 01:33:26;;;;;;;0.00;0.00;;;;;;;16.61;50.70;100869.78;4489873;31;33853;-82
2024/04/13 01:36:00;;;;;;;4.53;1.33;;;;;;;16.42;51.27;100873.47;4464341;31;35030;-82
2024/04/13 01:38:27;;;;;;;0.20;0.20;;;;;;;16.43;51.28;100881.41;4477962;31;34090;-82
2024/04/13 01:40:54;;;;;;;0.60;0.60;;;;;;;16.40;51.24;100873.56;4494829;31;33200;-83
2024/04/13 01:43:21;;;;;;;0.20;0.20;;;;;;;16.55;50.64;100880.78;4475946;31;32238;-82
2024/04/13 01:45:48;;;;;;;0.20;0.20;;;;;;;16.40;51.23;100876.22;4478213;31;33196;-82
2024/04/13 01:48:17;;;;;;;0.20;0.20;;;;;;;16.49;50.76;100878.44;4489559;31;35179;-82
2024/04/13 01:50:44;;;;;;;0.47;0.47;;;;;;;16.39;51.21;100877.19;4477487;31;32884;-82
2024/04/13 01:53:11;;;;;;;0.95;0.65;;;;;;;16.38;51.32;100881.66;4478894;31;32299;-83
2024/04/13 01:55:37;;;;;;;0.03;0.03;;;;;;;16.33;51.41;100873.03;4465231;31;34893;-82
2024/04/13 01:58:04;;;;;;;0.68;0.68;;;;;;;16.33;51.50;100874.81;4463315;31;33323;-82
2024/04/13 02:00:32;;;;;;;0.10;0.10;;;;;;;15.99;52.29;100876.47;4477588;31;33256;-83
2024/04/13 02:02:58;;;;;;;0.08;0.05;;;;;;;16.01;52.45;100874.63;4478169;31;34208;-82
2024/04/13 02:05:27;;;;;;;0.37;0.20;;;;;;;16.07;52.01;100868.13;4489459;31;34150;-82
2024/04/13 02:07:53;;;;;;;0.35;0.35;;;;;;;16.04;52.39;100871.78;4476178;31;34770;-82
2024/04/13 02:10:20;;;;;;;0.28;0.28;;;;;;;15.94;52.91;100877.66;4479504;31;33399;-82
2024/04/13 02:12:46;;;;;;;0.00;0.00;;;;;;;15.82;53.32;100869.31;4477384;31;33783;-82
2024/04/13 02:15:13;;;;;;;0.22;0.22;;;;;;;15.83;53.21;100870.19;4492666;31;32983;-82
2024/04/13 02:17:41;;;;;;;0.20;0.20;;;;;;;15.61;54.08;100865.84;4464158;31;32912;-82
2024/04/13 02:20:11;;;;;;;0.03;0.03;;;;;;;16.02;53.01;100870.16;4469514;31;33310;-82
2024/04/13 02:22:38;;;;;;;0.32;0.20;;;;;;;16.07;52.96;100884.97;4475762;31;34370;-82
2024/04/13 02:25:08;;;;;;;0.08;0.08;;;;;;;16.03;52.99;100878.06;4474586;31;33033;-82
2024/04/13 02:27:35;;;;;;;1.60;0.68;;;;;;;16.12;52.76;100876.75;4481260;31;34030;-82
2024/04/13 02:30:02;;;;;;;0.03;0.03;;;;;;;16.28;52.26;100876.84;4492260;31;33693;-82
2024/04/13 02:32:29;;;;;;;0.00;0.00;;;;;;;16.25;52.34;100877.00;4473804;31;34611;-82
2024/04/13 02:34:56;;;;;;;0.47;0.47;;;;;;;16.09;52.87;100888.44;4474880;31;33604;-82
2024/04/13 02:37:22;;;;;;;0.25;0.10;;;;;;;16.10;53.08;100883.97;4464877;31;33231;-82
2024/04/13 02:39:50;;;;;;;1.20;0.65;;;;;;;16.12;52.89;100882.94;4467317;31;33619;-82
2024/04/13 02:42:17;;;;;;;0.50;0.50;;;;;;;16.27;52.44;100885.78;4478084;31;33823;-82
2024/04/13 02:44:47;;;;;;;23.35;1.42;;;;;;;16.02;53.18;100879.00;4475126;31;34031;-82
2024/04/13 02:47:13;;;;;;;0.50;0.50;;;;;;;16.01;53.16;100877.28;4478197;31;32967;-82
2024/04/13 02:49:40;;;;;;;2.33;1.10;;;;;;;15.98;53.27;100882.75;4475246;31;34194;-82
2024/04/13 02:52:06;;;;;;;3.10;0.40;;;;;;;15.91;53.47;100880.47;4477102;31;34169;-81
2024/04/13 02:54:33;;;;;;;0.10;0.10;;;;;;;15.91;53.60;100883.16;4474776;31;31675;-81
2024/04/13 02:57:00;;;;;;;0.45;0.45;;;;;;;15.93;53.47;100879.44;4477110;31;33431;-81
2024/04/13 02:59:28;;;;;;;1.95;0.30;;;;;;;15.84;53.85;100885.22;4476205;31;34148;-81
2024/04/13 03:01:56;;;;;;;0.25;0.22;;;;;;;15.84;53.86;100885.22;4460665;31;32981;-81
2024/04/13 03:04:22;;;;;;;0.08;0.08;;;;;;;15.67;54.35;100885.19;4490018;31;32038;-81
2024/04/13 03:06:49;;;;;;;0.10;0.10;;;;;;;15.85;53.58;100879.81;4462117;32;33157;-81
2024/04/13 03:09:16;;;;;;;4.57;0.82;;;;;;;15.85;53.60;100876.28;4466457;31;33632;-81
2024/04/13 03:11:42;;;;;;;0.57;0.47;;;;;;;15.74;53.80;100882.13;4476710;31;33095;-83
2024/04/13 03:14:10;;;;;;;0.40;0.17;;;;;;;15.86;53.50;100876.25;4463877;31;32255;-84
2024/04/13 03:16:37;;;;;;;0.10;0.10;;;;;;;15.95;53.07;100884.69;4474958;31;32659;-84
2024/04/13 03:19:03;;;;;;;0.25;0.25;;;;;;;15.94;53.30;100877.66;4475057;31;33801;-84
2024/04/13 03:21:30;;;;;;;0.22;0.22;;;;;;;15.95;53.16;100869.59;4478290;31;34148;-84
2024/04/13 03:23:57;;;;;;;0.03;0.03;;;;;;;15.93;53.27;100874.13;4464933;31;32658;-82
2024/04/13 03:26:24;;;;;;;0.28;0.28;;;;;;;15.90;53.45;100870.75;4491738;31;33858;-82
2024/04/13 03:28:50;;;;;;;0.00;0.00;;;;;;;15.80;53.50;100878.31;4471007;31;33028;-82
2024/04/13 03:31:18;;;;;;;0.30;0.30;;;;;;;15.71;54.33;100876.09;4480837;31;33079;-82
2024/04/13 03:33:44;;;;;;;0.00;0.00;;;;;;;15.85;53.45;100878.94;4475896;31;33142;-83
2024/04/13 03:36:11;;;;;;;0.28;0.28;;;;;;;15.87;53.77;100877.09;4457192;31;33662;-83
2024/04/13 03:38:38;;;;;;;0.40;0.40;;;;;;;15.83;53.60;100880.84;4489458;31;33567;-82
2024/04/13 03:41:06;;;;;;;0.10;0.10;;;;;;;15.82;54.17;100884.44;4463543;31;33221;-83
2024/04/13 03:43:33;;;;;;;0.10;0.10;;;;;;;15.84;54.49;100883.41;4478551;31;32293;-82
2024/04/13 03:46:00;;;;;;;0.20;0.10;;;;;;;15.71;54.18;100878.75;4448656;31;32940;-84
2024/04/13 03:48:27;;;;;;;0.22;0.17;;;;;;;15.85;53.78;100885.13;4463935;31;32138;-82
2024/04/13 03:50:54;;;;;;;0.70;0.35;;;;;;;15.73;54.29;100880.41;4477714;31;34506;-82
2024/04/13 03:53:22;;;;;;;0.00;0.00;;;;;;;15.75;54.46;100880.34;4469049;31;32076;-82
2024/04/13 03:55:48;;;;;;;0.20;0.20;;;;;;;15.97;53.65;100880.19;4472334;31;34356;-82
2024/04/13 03:58:14;;;;;;;0.52;0.35;;;;;;;15.99;53.28;100886.28;4488576;31;34257;-82
2024/04/13 04:00:42;;;;;;;0.20;0.20;;;;;;;16.02;53.12;100886.12;4463697;31;32043;-83
2024/04/13 04:03:09;;;;;;;0.10;0.10;;;;;;;15.96;53.11;100892.62;4464599;31;33343;-83
2024/04/13 04:05:36;;;;;;;0.20;0.10;;;;;;;15.99;53.04;100886.28;4478905;31;34164;-83
2024/04/13 04:08:02;;;;;;;0.22;0.20;;;;;;;16.02;52.94;100876.34;4481086;31;34312;-83
2024/04/13 04:10:29;;;;;;;0.75;0.75;;;;;;;16.03;52.92;100888.72;4477416;31;31882;-83
2024/04/13 04:12:56;;;;;;;2.85;0.55;;;;;;;16.09;52.71;100888.44;4492412;31;33397;-83
2024/04/13 04:15:22;;;;;;;0.47;0.47;;;;;;;15.97;52.99;100885.50;4466200;31;34095;-83
2024/04/13 04:17:49;;;;;;;0.15;0.13;;;;;;;16.22;52.25;100887.81;4478050;31;33420;-83
2024/04/13 04:20:15;;;;;;;0.00;0.00;;;;;;;16.51;51.36;100889.88;4480475;31;34548;-82
2024/04/13 04:22:42;;;;;;;0.35;0.35;;;;;;;16.49;51.37;100891.75;4491060;31;32677;-82
2024/04/13 04:25:09;;;;;;;0.00;0.00;;;;;;;16.58;51.13;100888.63;4466123;31;35126;-83
2024/04/13 04:27:35;;;;;;;0.00;0.00;;;;;;;16.75;50.53;100894.91;4473739;31;32011;-82
2024/04/13 04:30:02;;;;;;;0.15;0.15;;;;;;;16.71;50.45;100895.97;4479364;31;34267;-82
2024/04/13 04:32:29;;;;;;;1.02;0.40;;;;;;;16.55;51.15;100896.78;4467403;31;32068;-81
2024/04/13 04:34:56;;;;;;;0.35;0.35;;;;;;;16.67;50.87;100894.44;4463769;31;32287;-82
2024/04/13 04:37:27;;;;;;;0.88;0.55;;;;;;;16.68;50.83;100898.81;4477334;31;33708;-84
2024/04/13 04:39:55;;;;;;;0.10;0.10;;;;;;;16.62;50.94;100903.53;4466105;31;33514;-84
2024/04/13 04:42:22;;;;;;;0.20;0.20;;;;;;;16.94;49.91;100909.00;4494556;31;32849;-84
2024/04/13 04:44:48;;;;;;;2.67;1.58;;;;;;;17.21;49.32;100905.84;4490620;31;34341;-84
2024/04/13 04:47:15;;;;;;;0.20;0.20;;;;;;;17.06;49.39;100916.38;4467427;31;34218;-84
2024/04/13 04:49:42;;;;;;;0.13;0.13;;;;;;;17.27;48.91;100913.50;4479246;31;33678;-84
2024/04/13 04:52:08;;;;;;;0.40;0.40;;;;;;;17.45;48.42;100911.66;4464316;31;33262;-84
2024/04/13 04:54:35;;;;;;;0.37;0.20;;;;;;;17.61;48.01;100909.84;4477473;31;34271;-84
2024/04/13 04:57:02;;;;;;;0.20;0.20;;;;;;;17.76;47.41;100905.53;4478558;31;32306;-84
2024/04/13 04:59:28;;;;;;;1.15;1.05;;;;;;;17.71;47.74;100910.19;4477517;31;33981;-84
2024/04/13 05:01:56;;;;;;;0.95;0.82;;;;;;;17.96;46.92;100905.25;4464785;31;33922;-84
2024/04/13 05:04:23;;;;;;;2.25;1.05;;;;;;;18.02;46.86;100909.38;4478800;31;33843;-84
2024/04/13 05:06:50;;;;;;;4.90;0.62;;;;;;;17.90;47.73;100916.31;4478668;31;33078;-83
2024/04/13 05:09:17;;;;;;;0.75;0.75;;;;;;;18.40;46.06;100912.53;4447665;31;33816;-83
2024/04/13 05:11:43;;;;;;;1.33;1.17;;;;;;;18.39;46.39;100906.31;4479575;31;33284;-84
2024/04/13 05:14:10;;;;;;;1.05;0.40;;;;;;;18.48;45.96;100907.59;4464822;31;33607;-84
2024/04/13 05:16:37;;;;;;;0.10;0.10;;;;;;;18.66;45.60;100906.50;4465853;31;34730;-83
2024/04/13 05:19:04;;;;;;;0.30;0.30;;;;;;;18.74;45.69;100905.19;4479529;31;35429;-83
2024/04/13 05:21:30;;;;;;;0.60;0.60;;;;;;;18.95;45.25;100911.94;4467548;31;33885;-82
2024/04/13 05:23:58;;;;;;;0.40;0.20;;;;;;;18.92;45.80;100912.13;4476306;31;33217;-82
2024/04/13 05:26:25;;;;;;;0.65;0.52;;;;;;;18.84;45.51;100909.03;4465147;31;32612;-82
2024/04/13 05:28:51;;;;;;;0.52;0.52;;;;;;;18.88;45.91;100907.91;4489551;31;33971;-82
2024/04/13 05:31:18;;;;;;;0.30;0.30;;;;;;;18.90;45.42;100908.69;4476891;31;33736;-82
2024/04/13 05:33:45;;;;;;;1.15;0.60;;;;;;;19.04;44.93;100911.37;4464673;31;34435;-82
2024/04/13 05:36:11;;;;;;;0.65;0.57;;;;;;;18.99;45.44;100912.59;4478717;31;32945;-82
2024/04/13 05:38:38;;;;;;;0.65;0.65;;;;;;;19.05;45.10;100912.25;4464102;31;31937;-83
2024/04/13 05:41:05;;;;;;;2.08;1.48;;;;;;;19.26;44.57;100912.72;4464470;31;32220;-82
2024/04/13 05:43:32;;;;;;;2.33;0.50;;;;;;;19.11;45.07;100919.88;4466161;31;32332;-83
2024/04/13 05:46:02;;;;;;;0.15;0.15;;;;;;;19.27;44.64;100925.16;4460379;31;33451;-83
2024/04/13 05:48:29;;;;;;;0.40;0.40;;;;;;;19.26;44.61;100921.59;4462036;31;33776;-83
2024/04/13 05:50:57;;;;;;;0.25;0.10;;;;;;;19.41;44.30;100917.97;4475438;31;34504;-83
2024/04/13 05:53:25;;;;;;;1.10;1.00;;;;;;;19.36;44.39;100927.25;4465208;31;34748;-82
2024/04/13 05:55:51;;;;;;;2.25;0.93;;;;;;;19.41;44.24;100923.31;4475490;31;32901;-83
2024/04/13 05:58:19;;;;;;;0.50;0.45;;;;;;;19.59;44.17;100928.50;4465405;31;33253;-83
2024/04/13 06:00:47;;;;;;;0.25;0.25;;;;;;;19.44;44.34;100928.50;4468182;31;34457;-83
2024/04/13 06:03:14;;;;;;;0.90;0.85;;;;;;;19.76;43.91;100935.50;4466538;31;34079;-83
2024/04/13 06:05:41;;;;;;;2.03;0.95;;;;;;;19.80;43.98;100926.31;4479705;31;33428;-83
2024/04/13 06:08:09;;;;;;;0.55;0.32;;;;;;;19.76;44.13;100930.16;4466309;31;32295;-83
2024/04/13 06:10:36;;;;;;;1.08;0.70;;;;;;;20.02;43.82;100934.66;4491643;31;32766;-83
2024/04/13 06:13:03;;;;;;;0.50;0.40;;;;;;;20.16;43.49;100929.25;4475166;31;34151;-83
2024/04/13 06:15:29;;;;;;;0.32;0.32;;;;;;;20.26;43.45;100928.66;4465212;31;34323;-81
2024/04/13 06:17:57;;;;;;;1.67;0.70;;;;;;;20.33;43.07;100930.84;4467817;31;33936;-81
2024/04/13 06:20:24;;;;;;;0.10;0.10;;;;;;;19.96;43.62;100943.13;4477027;31;31926;-83
2024/04/13 06:22:51;;;;;;;8.43;0.82;;;;;;;20.09;43.47;100936.00;4478369;31;34560;-83
2024/04/13 06:25:18;;;;;;;0.80;0.80;;;;;;;20.06;43.98;100949.59;4465261;31;34568;-83
2024/04/13 06:27:44;;;;;;;0.30;0.30;;;;;;;19.88;44.72;100953.47;4487936;31;33335;-84
2024/04/13 06:30:13;;;;;;;0.65;0.60;;;;;;;20.12;44.24;100954.56;4489198;31;33294;-84
2024/04/13 06:32:40;;;;;;;0.50;0.40;;;;;;;20.28;44.09;100948.22;4478689;31;32892;-84
2024/04/13 06:35:09;;;;;;;3.53;0.37;;;;;;;20.43;43.42;100950.72;4477653;31;34321;-84
2024/04/13 06:37:35;;;;;;;0.55;0.28;;;;;;;20.53;43.22;100945.63;4464682;31;33206;-82
2024/04/13 06:40:06;;;;;;;1.27;0.20;;;;;;;20.66;42.67;100949.22;4463114;31;32201;-82
2024/04/13 06:42:34;;;;;;;1.58;1.33;;;;;;;20.68;42.77;100944.59;4478574;31;33932;-83
2024/04/13 06:45:01;;;;;;;1.65;1.05;;;;;;;20.85;42.55;100947.97;4475444;31;33066;-83
2024/04/13 06:47:28;;;;;;;0.20;0.20;;;;;;;20.97;42.19;100949.78;4479220;31;33205;-82
2024/04/13 06:49:55;;;;;;;0.93;0.85;;;;;;;21.23;41.39;100948.00;4475449;32;33990;-82
2024/04/13 06:52:21;;;;;;;0.05;0.05;;;;;;;21.32;40.95;100952.75;4475987;31;35160;-83
2024/04/13 06:54:48;;;;;;;0.25;0.25;;;;;;;21.62;40.46;100949.72;4493447;31;33485;-83
2024/04/13 06:57:16;;;;;;;6.60;0.70;;;;;;;21.46;41.06;100949.97;4489019;31;33776;-83
2024/04/13 06:59:42;;;;;;;4.55;1.35;;;;;;;21.98;39.84;100950.69;4489356;31;33764;-83
2024/04/13 07:02:09;;;;;;;10.30;0.88;;;;;;;21.97;40.15;100955.22;4466629;31;34896;-82
2024/04/13 07:04:35;;;;;;;0.30;0.20;;;;;;;22.06;39.23;100948.31;4476672;31;33857;-83
2024/04/13 07:07:02;;;;;;;0.05;0.05;;;;;;;22.12;39.58;100950.56;4479209;31;33775;-82
2024/04/13 07:09:29;;;;;;;0.15;0.13;;;;;;;22.54;39.39;100948.34;4478601;31;33293;-83
2024/04/13 07:11:56;;;;;;;0.60;0.60;;;;;;;22.62;38.45;100939.69;4477778;31;34594;-82
2024/04/13 07:14:22;;;;;;;0.57;0.37;;;;;;;22.67;38.75;100937.50;4477114;31;33577;-83
2024/04/13 07:16:50;;;;;;;0.35;0.32;;;;;;;23.12;38.11;100945.72;4463936;31;31843;-83
2024/04/13 07:19:17;;;;;;;0.05;0.00;;;;;;;23.01;38.05;100943.88;4475591;31;32515;-82
2024/04/13 07:21:44;;;;;;;0.22;0.10;;;;;;;23.48;36.34;100950.06;4477021;31;33979;-83
2024/04/13 07:24:11;;;;;;;0.88;0.60;;;;;;;23.58;34.50;100929.47;4462000;31;32991;-82
2024/04/13 07:26:37;;;;;;;0.82;0.55;;;;;;;23.67;34.41;100939.56;4479458;31;33296;-82
2024/04/13 07:29:04;;;;;;;0.00;0.00;;;;;;;23.48;34.19;100931.19;4474925;31;31798;-82
2024/04/13 07:31:31;;;;;;;0.43;0.40;;;;;;;23.68;34.40;100935.88;4475537;31;32369;-83
2024/04/13 07:33:57;;;;;;;0.73;0.65;;;;;;;23.47;35.05;100933.03;4463738;31;32755;-84
2024/04/13 07:36:23;;;;;;;5.37;0.35;;;;;;;23.35;34.80;100941.25;4479201;31;33836;-83
2024/04/13 07:38:50;;;;;;;4.03;0.98;;;;;;;23.47;35.05;100935.75;4464184;31;34019;-82
2024/04/13 07:41:17;;;;;;;0.30;0.20;;;;;;;23.58;34.71;100934.88;4476977;31;33662;-82
2024/04/13 07:43:43;;;;;;;1.30;0.55;;;;;;;23.59;34.97;100936.59;4474108;31;34651;-82
2024/04/13 07:46:10;;;;;;;0.30;0.30;;;;;;;23.62;34.68;100936.34;4473429;31;33950;-83
2024/04/13 07:48:37;;;;;;;1.55;0.68;;;;;;;23.68;34.88;100933.19;4476006;31;33288;-82
2024/04/13 07:51:04;;;;;;;3.47;1.27;;;;;;;23.87;34.83;100939.78;4462633;31;32859;-82
2024/04/13 07:53:30;;;;;;;2.70;0.88;;;;;;;23.56;35.08;100938.69;4463226;31;34978;-83
2024/04/13 07:55:57;;;;;;;0.20;0.20;;;;;;;23.75;35.69;100937.12;4486572;31;33309;-82
2024/04/13 07:58:24;;;;;;;0.43;0.37;;;;;;;24.11;34.46;100932.37;4477048;31;33825;-82
2024/04/13 08:01:38;;;;;;;1.17;0.73;;;;;;;24.35;33.62;100932.16;4463859;31;32999;-82
2024/04/13 08:03:57;;;;;;;0.70;0.57;;;;;;;24.28;33.46;100929.16;4479272;31;33342;-82
2024/04/13 08:06:27;;;;;;;2.58;0.55;;;;;;;24.31;34.45;100932.56;4464882;31;33053;-82
2024/04/13 08:08:53;;;;;;;0.00;0.00;;;;;;;24.42;33.39;100925.31;4486549;31;33786;-83
2024/04/13 08:11:20;;;;;;;0.32;0.32;;;;;;;24.39;33.90;100936.38;4473400;31;33192;-82
2024/04/13 08:13:47;;;;;;;0.22;0.20;;;;;;;24.71;33.47;100924.69;4475006;31;34886;-82
2024/04/13 08:16:14;;;;;;;0.43;0.43;;;;;;;24.43;33.66;100937.81;4488327;31;32599;-83
2024/04/13 08:18:42;;;;;;;0.35;0.35;;;;;;;24.40;34.18;100931.81;4469353;31;33342;-82
2024/04/13 08:21:08;;;;;;;0.40;0.40;;;;;;;24.47;33.76;100922.25;4463849;31;33102;-82
2024/04/13 08:23:35;;;;;;;0.47;0.45;;;;;;;24.78;33.34;100937.56;4489854;31;34771;-83
2024/04/13 08:26:03;;;;;;;0.37;0.28;;;;;;;24.93;33.27;100923.72;4466218;31;33138;-82
2024/04/13 08:28:30;;;;;;;0.60;0.60;;;;;;;25.03;33.98;100932.75;4476884;31;32617;-82
2024/04/13 08:30:56;;;;;;;1.08;0.15;;;;;;;24.84;33.95;100929.91;4474293;31;33709;-82
2024/04/13 08:33:23;;;;;;;1.58;0.75;;;;;;;25.33;33.58;100925.69;4487584;31;34138;-82
2024/04/13 08:36:05;;;;;;;2.55;1.05;;;;;;;25.52;33.07;100921.22;4460431;31;33939;-82
2024/04/13 08:38:32;;;;;;;2.28;0.68;;;;;;;25.31;33.56;100922.28;4468506;31;33850;-83
2024/04/13 08:41:04;;;;;;;0.50;0.50;;;;;;;25.29;33.92;100922.38;4475049;31;33640;-82
2024/04/13 08:43:30;;;;;;;3.10;1.00;;;;;;;25.61;34.19;100914.13;4489251;31;34133;-83
2024/04/13 08:46:03;;;;;;;1.37;0.45;;;;;;;25.72;33.68;100911.31;4479624;31;35397;-86
2024/04/13 08:48:31;;;;;;;0.52;0.40;;;;;;;26.05;34.14;100914.69;4474857;31;32354;-87
2024/04/13 08:50:58;;;;;;;1.58;0.95;;;;;;;26.15;33.05;100918.28;4462375;31;33840;-84
2024/04/13 08:53:25;;;;;;;0.30;0.30;;;;;;;26.05;32.71;100912.00;4476160;31;33359;-81
2024/04/13 08:55:53;;;;;;;5.47;0.52;;;;;;;25.75;32.75;100916.50;4479229;31;32489;-81
2024/04/13 08:58:21;;;;;;;2.37;0.62;;;;;;;25.42;33.23;100920.31;4466924;31;33924;-80
2024/04/13 09:00:50;;;;;;;0.55;0.55;;;;;;;26.14;32.73;100905.75;4480935;31;34447;-81
2024/04/13 09:03:17;;;;;;;1.27;1.08;;;;;;;26.23;32.22;100906.75;4493190;31;33765;-81
2024/04/13 09:05:44;;;;;;;2.25;0.90;;;;;;;26.37;32.23;100900.91;4477341;31;32973;-81
2024/04/13 09:08:13;;;;;;;18.12;0.88;;;;;;;25.77;32.29;100900.97;4487673;31;33202;-81
2024/04/13 09:10:42;;;;;;;0.45;0.45;;;;;;;26.19;32.36;100899.91;4491617;31;34692;-81
2024/04/13 09:13:09;;;;;;;0.80;0.47;;;;;;;26.57;30.66;100890.97;4479379;31;33983;-81
2024/04/13 09:15:35;;;;;;;0.20;0.15;;;;;;;26.50;31.00;100895.25;4491633;31;34525;-81
2024/04/13 09:18:02;;;;;;;0.20;0.15;;;;;;;26.38;31.98;100896.34;4477975;31;32852;-81
2024/04/13 09:20:29;;;;;;;0.40;0.32;;;;;;;26.58;30.91;100891.81;4463940;31;35083;-81
2024/04/13 09:22:59;;;;;;;0.88;0.80;;;;;;;26.62;30.67;100898.66;4477019;31;33545;-81
2024/04/13 09:25:25;;;;;;;0.17;0.17;;;;;;;26.13;31.60;100904.03;4476628;31;33374;-81
2024/04/13 09:28:01;;;;;;;2.75;0.32;;;;;;;26.73;29.57;100893.97;4478293;31;33417;-81
2024/04/13 09:30:28;;;;;;;1.52;0.68;;;;;;;26.66;30.65;100890.09;4478119;31;34603;-81
2024/04/13 09:33:03;;;;;;;0.10;0.10;;;;;;;26.75;30.68;100889.22;4489877;31;33905;-80
2024/04/13 09:35:30;;;;;;;0.20;0.20;;;;;;;26.19;30.50;100898.06;4490975;31;33692;-81
2024/04/13 09:38:01;;;;;;;3.17;0.35;;;;;;;26.77;30.76;100886.38;4468686;31;32167;-81
2024/04/13 09:40:30;;;;;;;0.10;0.10;;;;;;;26.59;29.95;100883.56;4475988;31;35146;-81
2024/04/13 09:42:58;;;;;;;0.20;0.20;;;;;;;26.86;29.08;100879.22;4475906;31;34887;-81
2024/04/13 09:45:25;;;;;;;0.25;0.25;;;;;;;26.68;30.08;100871.88;4476957;31;33735;-81
2024/04/13 09:47:55;;;;;;;0.47;0.45;;;;;;;26.84;28.02;100867.69;4482807;31;31595;-83
2024/04/13 09:50:26;;;;;;;0.00;0.00;;;;;;;27.36;27.27;100868.97;4464284;31;34834;-81
2024/04/13 09:52:52;;;;;;;0.13;0.13;;;;;;;27.28;27.54;100867.00;4492510;31;34005;-80
2024/04/13 09:55:21;;;;;;;0.52;0.30;;;;;;;27.50;26.59;100868.47;4489340;31;33090;-81
2024/04/13 09:57:50;;;;;;;0.13;0.13;;;;;;;27.29;26.33;100868.69;4476802;31;31864;-81
2024/04/13 10:00:17;;;;;;;0.73;0.73;;;;;;;27.69;25.79;100859.38;4479020;31;34208;-81
2024/04/13 10:02:45;;;;;;;12.95;2.65;;;;;;;28.01;25.97;100849.88;4488129;31;33549;-81
2024/04/13 10:05:12;;;;;;;0.32;0.32;;;;;;;27.60;27.51;100857.56;4472118;31;35449;-81
2024/04/13 10:07:39;;;;;;;0.00;0.00;;;;;;;27.26;27.32;100854.59;4463788;31;32376;-81
2024/04/13 10:10:08;;;;;;;0.55;0.47;;;;;;;27.66;27.37;100864.25;4468869;31;32419;-81
2024/04/13 10:12:37;;;;;;;0.50;0.40;;;;;;;27.71;27.56;100857.37;4486919;31;34747;-81
2024/04/13 10:15:08;;;;;;;0.10;0.10;;;;;;;27.59;29.37;100855.88;4473186;31;33826;-81
2024/04/13 10:17:37;;;;;;;0.10;0.10;;;;;;;27.92;28.09;100845.41;4466902;31;32192;-81
2024/04/13 10:20:05;;;;;;;0.47;0.40;;;;;;;28.08;27.89;100834.69;4478892;31;32137;-81
2024/04/13 10:22:33;;;;;;;0.45;0.45;;;;;;;27.99;28.45;100849.19;4476925;31;34169;-81
2024/04/13 10:25:04;;;;;;;0.35;0.35;;;;;;;27.97;28.30;100840.37;4491173;31;34507;-81
2024/04/13 10:27:33;;;;;;;0.25;0.25;;;;;;;28.22;27.45;100834.16;4481349;31;33281;-81
2024/04/13 10:30:00;;;;;;;0.00;0.00;;;;;;;28.15;28.02;100833.06;4480730;31;34063;-81
2024/04/13 10:32:28;;;;;;;0.00;0.00;;;;;;;28.14;28.05;100827.78;4477309;31;33064;-81
2024/04/13 10:34:58;;;;;;;0.00;0.00;;;;;;;28.07;28.09;100825.69;4489003;31;33830;-81
2024/04/13 10:37:38;;;;;;;0.10;0.10;;;;;;;28.15;27.50;100822.19;4476448;31;32427;-81
2024/04/13 10:40:06;;;;;;;0.20;0.20;;;;;;;28.02;27.07;100806.31;4473628;31;32794;-81
2024/04/13 10:42:39;;;;;;;1.05;0.50;;;;;;;28.26;26.14;100810.25;4477043;31;33488;-81
2024/04/13 10:45:18;;;;;;;0.55;0.30;;;;;;;28.81;25.22;100804.56;4458990;31;32463;-81
2024/04/13 10:47:46;;;;;;;0.20;0.20;;;;;;;28.82;24.99;100804.41;4479280;31;34168;-81
2024/04/13 10:50:17;;;;;;;0.35;0.35;;;;;;;29.07;24.51;100801.84;4477846;31;33624;-81
2024/04/13 10:52:44;;;;;;;5.18;0.40;;;;;;;28.98;24.72;100798.22;4476541;31;32274;-81
2024/04/13 10:55:20;;;;;;;0.20;0.20;;;;;;;28.63;25.46;100779.28;4478196;31;34850;-81
2024/04/13 10:57:49;;;;;;;0.20;0.20;;;;;;;27.86;26.21;100789.00;4477100;31;33129;-81
2024/04/13 11:00:16;;;;;;;0.20;0.10;;;;;;;28.37;24.96;100787.44;4480078;31;31315;-81
2024/04/13 11:02:43;;;;;;;1.00;0.68;;;;;;;28.45;25.06;100784.81;4491254;31;34170;-81
2024/04/13 11:05:15;;;;;;;0.65;0.40;;;;;;;28.53;25.73;100776.69;4477664;31;34683;-81
2024/04/13 11:07:42;;;;;;;0.75;0.40;;;;;;;28.76;25.54;100769.69;4486714;31;33990;-81
2024/04/13 11:10:09;;;;;;;0.55;0.55;;;;;;;28.68;25.40;100769.66;4477900;31;34642;-81
2024/04/13 11:12:35;;;;;;;3.45;1.23;;;;;;;28.63;25.26;100771.12;4490197;31;33371;-84
2024/04/13 11:15:03;;;;;;;1.27;0.32;;;;;;;28.80;24.93;100759.34;4477891;31;32566;-83
2024/04/13 11:17:31;;;;;;;0.20;0.17;;;;;;;28.63;26.11;100758.44;4475799;31;33201;-83
2024/04/13 11:19:58;;;;;;;0.80;0.55;;;;;;;29.06;25.51;100756.66;4475361;31;32972;-83
2024/04/13 11:22:27;;;;;;;0.93;0.52;;;;;;;29.18;25.48;100757.19;4462247;31;33819;-83
2024/04/13 11:24:54;;;;;;;0.35;0.35;;;;;;;29.14;25.52;100756.66;4462278;31;32961;-84
2024/04/13 11:27:22;;;;;;;0.25;0.25;;;;;;;29.34;24.23;100751.78;4478156;31;32854;-83